Time;durP1;ratioP1;P1;durP2;ratioP2;P2;SDS_P1;SDS_P2;PMS_P1;PMS_P2;Temp;Humidity;BMP_temperature;BMP_pressure;BME280_temperature;BME280_humidity;BME280_pressure;Samples;Min_cycle;Max_cycle;Signal;HPM_P1;HPM_P2
2022/02/12 00:00:33;;;;;;;11.32;6.43;;;0.80;99.90;;;;;;5117360;28;20040;-75
2022/02/12 00:02:58;;;;;;;20.05;7.30;;;0.80;99.90;;;;;;5116921;28;20043;-76
2022/02/12 00:05:25;;;;;;;16.45;6.78;;;0.80;99.90;;;;;;5115414;28;20078;-75
2022/02/12 00:07:52;;;;;;;13.95;8.38;;;0.80;99.90;;;;;;5117083;28;20023;-74
2022/02/12 00:10:18;;;;;;;13.75;6.70;;;0.80;99.90;;;;;;5116990;28;20020;-75
2022/02/12 00:12:43;;;;;;;17.48;7.22;;;0.70;99.90;;;;;;5115675;28;20116;-75
2022/02/12 00:15:09;;;;;;;15.57;7.38;;;0.70;99.90;;;;;;5116067;28;20124;-74
2022/02/12 00:17:35;;;;;;;21.52;7.57;;;0.70;99.90;;;;;;5116300;27;20043;-75
2022/02/12 00:20:01;;;;;;;11.63;7.80;;;0.60;99.90;;;;;;5115623;28;20474;-75
2022/02/12 00:22:27;;;;;;;16.70;7.05;;;0.60;99.90;;;;;;5116166;28;20028;-75
2022/02/12 00:24:52;;;;;;;13.93;7.93;;;0.60;99.90;;;;;;5115645;28;20024;-77
2022/02/12 00:27:18;;;;;;;18.73;6.60;;;0.60;99.90;;;;;;5116001;28;20016;-76
2022/02/12 00:29:43;;;;;;;16.42;7.43;;;0.60;99.90;;;;;;5116175;28;20425;-77
2022/02/12 00:32:09;;;;;;;14.48;6.43;;;0.60;99.90;;;;;;5115029;28;20035;-73
2022/02/12 00:34:35;;;;;;;18.15;7.05;;;0.60;99.90;;;;;;5116727;28;20406;-76
2022/02/12 00:37:01;;;;;;;16.17;6.80;;;0.60;99.90;;;;;;5116419;28;20032;-75
2022/02/12 00:39:26;;;;;;;19.15;6.40;;;0.50;99.90;;;;;;5114579;28;20083;-75
2022/02/12 00:41:52;;;;;;;21.35;6.43;;;0.50;99.90;;;;;;5115008;28;20026;-75
2022/02/12 00:44:18;;;;;;;20.45;6.55;;;0.50;99.90;;;;;;5116023;28;20104;-74
2022/02/12 00:46:43;;;;;;;16.90;6.60;;;0.50;99.90;;;;;;5115149;28;20011;-76
2022/02/12 00:49:09;;;;;;;20.83;6.38;;;0.50;99.90;;;;;;5115332;28;20551;-75
2022/02/12 00:51:34;;;;;;;10.98;6.03;;;0.50;99.90;;;;;;5115135;28;20020;-75
2022/02/12 00:54:02;;;;;;;16.92;6.80;;;0.50;99.90;;;;;;5115223;28;20028;-75
2022/02/12 00:56:28;;;;;;;22.63;6.43;;;0.40;99.90;;;;;;5115206;28;20027;-75
2022/02/12 00:58:54;;;;;;;19.10;7.30;;;0.40;99.90;;;;;;5116214;28;20433;-76
2022/02/12 01:01:20;;;;;;;27.80;7.10;;;0.40;99.90;;;;;;5115163;28;20019;-75
2022/02/12 01:03:46;;;;;;;11.30;5.55;;;0.50;99.90;;;;;;5115339;28;20042;-76
2022/02/12 01:06:12;;;;;;;17.63;6.20;;;0.50;99.90;;;;;;5115029;28;20110;-78
2022/02/12 01:08:38;;;;;;;14.00;6.30;;;0.40;99.90;;;;;;5114564;28;20027;-76
2022/02/12 01:11:04;;;;;;;15.65;5.55;;;0.50;99.90;;;;;;5115313;28;20471;-75
2022/02/12 01:13:29;;;;;;;22.08;7.22;;;0.40;99.90;;;;;;5115136;28;20024;-75
2022/02/12 01:15:55;;;;;;;16.35;5.97;;;0.50;99.90;;;;;;5114104;28;20031;-75
2022/02/12 01:18:21;;;;;;;14.98;7.20;;;0.40;99.90;;;;;;5114565;28;20024;-76
2022/02/12 01:20:46;;;;;;;22.42;6.22;;;0.60;99.90;;;;;;5115423;28;20389;-76
2022/02/12 01:23:12;;;;;;;16.42;5.55;;;0.40;99.90;;;;;;5113966;28;20015;-76
2022/02/12 01:25:38;;;;;;;11.38;6.20;;;0.40;99.90;;;;;;5114175;28;20104;-76
2022/02/12 01:28:04;;;;;;;10.13;5.50;;;0.40;99.90;;;;;;5114736;28;20042;-75
2022/02/12 01:30:30;;;;;;;14.35;5.47;;;0.40;99.90;;;;;;5113937;28;20355;-75
2022/02/12 01:32:56;;;;;;;16.95;6.57;;;0.40;99.90;;;;;;5114446;28;20028;-75
2022/02/12 01:35:24;;;;;;;22.42;6.55;;;0.40;99.90;;;;;;5113201;28;20032;-75
2022/02/12 01:37:50;;;;;;;11.75;5.95;;;0.30;99.90;;;;;;5113206;28;20466;-75
2022/02/12 01:40:16;;;;;;;23.55;6.47;;;0.30;99.90;;;;;;5114249;28;20391;-75
2022/02/12 01:42:42;;;;;;;23.13;6.55;;;0.30;99.90;;;;;;5113687;28;20528;-74
2022/02/12 01:45:08;;;;;;;20.60;6.45;;;0.30;99.90;;;;;;5114387;28;20024;-75
2022/02/12 01:47:34;;;;;;;24.00;7.60;;;0.30;99.90;;;;;;5114652;28;20084;-74
2022/02/12 01:50:00;;;;;;;12.10;5.57;;;0.30;99.90;;;;;;5113990;28;20047;-75
2022/02/12 01:52:31;;;;;;;15.20;6.38;;;0.30;99.90;;;;;;5114475;28;20521;-76
2022/02/12 01:54:56;;;;;;;17.80;6.07;;;0.30;99.90;;;;;;5114376;28;20394;-74
2022/02/12 01:57:22;;;;;;;22.02;6.90;;;0.30;99.90;;;;;;5113762;28;20020;-76
2022/02/12 01:59:48;;;;;;;15.10;5.88;;;0.30;99.90;;;;;;5114883;28;20024;-76
2022/02/12 02:02:13;;;;;;;17.20;5.55;;;0.30;99.90;;;;;;5113809;28;20073;-76
2022/02/12 02:04:43;;;;;;;12.60;5.47;;;0.30;99.90;;;;;;5113436;28;20043;-76
2022/02/12 02:07:11;;;;;;;18.02;5.78;;;0.30;99.90;;;;;;5114051;28;20044;-76
2022/02/12 02:09:37;;;;;;;13.07;6.03;;;0.30;99.90;;;;;;5114110;28;20076;-75
2022/02/12 02:12:04;;;;;;;18.95;6.13;;;0.20;99.90;;;;;;5113308;28;20084;-75
2022/02/12 02:14:34;;;;;;;10.30;5.10;;;0.30;99.90;;;;;;5113772;28;20028;-76
2022/02/12 02:17:01;;;;;;;15.38;5.30;;;0.30;99.90;;;;;;5114449;28;20047;-75
2022/02/12 02:19:26;;;;;;;18.38;4.97;;;0.20;99.90;;;;;;5113446;28;20035;-75
2022/02/12 02:21:55;;;;;;;10.57;5.15;;;0.20;99.90;;;;;;5113732;28;20026;-76
2022/02/12 02:24:20;;;;;;;19.02;5.45;;;0.30;99.90;;;;;;5113746;28;20085;-75
2022/02/12 02:26:46;;;;;;;14.80;6.55;;;0.20;99.90;;;;;;5113419;28;20027;-75
2022/02/12 02:29:14;;;;;;;13.93;5.18;;;0.20;99.90;;;;;;5113268;28;20143;-75
2022/02/12 02:31:40;;;;;;;13.23;5.78;;;0.20;99.90;;;;;;5112928;28;20038;-76
2022/02/12 02:34:10;;;;;;;12.82;5.65;;;0.20;99.90;;;;;;5115128;28;20043;-75
2022/02/12 02:36:35;;;;;;;17.77;5.43;;;0.30;99.90;;;;;;5113831;28;20100;-76
2022/02/12 02:39:04;;;;;;;14.07;5.68;;;0.30;99.90;;;;;;5113238;28;20757;-75
2022/02/12 02:41:30;;;;;;;16.75;6.22;;;0.20;99.90;;;;;;5113423;28;20413;-75
2022/02/12 02:43:55;;;;;;;12.55;6.05;;;0.30;99.90;;;;;;5113562;28;20061;-75
2022/02/12 02:46:21;;;;;;;16.00;5.25;;;0.30;99.90;;;;;;5113275;28;20092;-75
2022/02/12 02:48:46;;;;;;;14.48;6.95;;;0.20;99.90;;;;;;5113464;28;20024;-75
2022/02/12 02:56:45;;;;;;;18.60;5.70;;;0.20;99.90;;;;;;5113968;28;20047;-75
2022/02/12 02:59:11;;;;;;;20.73;5.15;;;1.00;99.90;;;;;;5113076;28;20030;-74
2022/02/12 03:01:37;;;;;;;22.20;6.93;;;0.20;99.90;;;;;;5112379;28;20031;-75
2022/02/12 03:04:04;;;;;;;18.60;5.57;;;0.20;99.90;;;;;;5113326;28;20047;-75
2022/02/12 03:06:30;;;;;;;16.42;5.78;;;0.30;99.90;;;;;;5113772;28;20106;-75
2022/02/12 03:08:57;;;;;;;12.98;5.45;;;0.20;99.90;;;;;;5113177;28;20071;-76
2022/02/12 03:11:23;;;;;;;24.63;5.53;;;0.20;99.90;;;;;;5113480;28;20477;-77
2022/02/12 03:13:51;;;;;;;16.35;5.80;;;0.20;99.90;;;;;;5113961;28;20080;-75
2022/02/12 03:16:16;;;;;;;15.63;6.97;;;0.10;99.90;;;;;;5113941;28;20042;-75
2022/02/12 03:18:44;;;;;;;19.52;6.15;;;0.10;99.90;;;;;;5113628;28;20024;-76
2022/02/12 03:21:11;;;;;;;11.25;5.10;;;0.10;99.90;;;;;;5113427;28;20114;-75
2022/02/12 03:23:37;;;;;;;17.13;6.50;;;0.10;99.90;;;;;;5114038;28;20031;-75
2022/02/12 03:26:02;;;;;;;19.27;6.22;;;0.10;99.90;;;;;;5114115;28;20027;-76
2022/02/12 03:28:28;;;;;;;18.42;6.30;;;0.00;99.90;;;;;;5112676;28;20041;-77
2022/02/12 03:30:54;;;;;;;19.98;6.35;;;0.00;99.90;;;;;;5114047;28;20038;-76
2022/02/12 03:33:20;;;;;;;15.77;5.85;;;0.00;99.90;;;;;;5113744;28;20107;-76
2022/02/12 03:35:48;;;;;;;14.10;5.18;;;0.00;99.90;;;;;;5113062;28;20042;-75
2022/02/12 03:38:29;;;;;;;18.52;5.22;;;-0.10;99.90;;;;;;5113432;28;20483;-76
2022/02/12 03:40:58;;;;;;;15.52;6.05;;;-0.10;99.90;;;;;;5113548;28;20055;-75
2022/02/12 03:43:25;;;;;;;22.33;7.78;;;-0.10;99.90;;;;;;5113025;28;20027;-75
2022/02/12 03:45:51;;;;;;;11.00;6.15;;;-0.10;99.90;;;;;;5113023;28;20023;-75
2022/02/12 03:48:17;;;;;;;18.05;6.85;;;0.00;99.90;;;;;;5113013;28;20111;-76
2022/02/12 03:50:42;;;;;;;18.95;6.65;;;0.00;99.90;;;;;;5116033;28;20027;-76
2022/02/12 03:53:12;;;;;;;18.05;7.30;;;0.00;99.90;;;;;;5116954;28;20023;-75
2022/02/12 03:55:39;;;;;;;14.27;6.05;;;0.00;99.90;;;;;;5116193;28;20055;-75
2022/02/12 03:58:13;;;;;;;14.73;6.00;;;0.00;99.90;;;;;;5116782;28;20107;-75
2022/02/12 04:00:40;;;;;;;26.98;8.27;;;0.00;99.90;;;;;;5117551;28;20080;-76
2022/02/12 04:03:07;;;;;;;21.52;6.60;;;0.00;99.90;;;;;;5116754;28;20184;-76
2022/02/12 04:05:33;;;;;;;11.70;6.53;;;0.00;99.90;;;;;;5116732;28;20051;-76
2022/02/12 04:07:59;;;;;;;25.25;7.53;;;0.00;99.90;;;;;;5117022;28;20026;-76
2022/02/12 04:10:25;;;;;;;20.45;7.15;;;0.00;99.90;;;;;;5116830;28;20107;-76
2022/02/12 04:12:52;;;;;;;14.30;6.88;;;0.00;99.90;;;;;;5117216;28;20122;-73
2022/02/12 04:15:19;;;;;;;19.67;6.97;;;0.00;99.90;;;;;;5116676;28;20459;-75
2022/02/12 04:17:45;;;;;;;14.90;6.32;;;0.10;99.90;;;;;;5116735;28;20034;-75
2022/02/12 04:20:22;;;;;;;19.08;7.07;;;0.00;99.90;;;;;;5116454;28;20051;-75
2022/02/12 04:22:47;;;;;;;16.15;6.95;;;0.00;99.90;;;;;;5116592;28;20059;-75
2022/02/12 04:25:16;;;;;;;15.48;6.80;;;0.00;99.90;;;;;;5115603;28;20056;-75
2022/02/12 04:27:43;;;;;;;18.25;6.90;;;-0.10;99.90;;;;;;5116236;28;20028;-75
2022/02/12 04:30:09;;;;;;;14.32;6.47;;;-0.10;99.90;;;;;;5115348;28;20031;-75
2022/02/12 04:32:36;;;;;;;17.27;6.97;;;-0.10;99.90;;;;;;5115428;28;20024;-75
2022/02/12 04:35:03;;;;;;;19.60;6.82;;;0.00;99.90;;;;;;5115998;28;20111;-75
2022/02/12 04:37:30;;;;;;;17.45;6.72;;;0.00;99.90;;;;;;5115305;28;20081;-75
2022/02/12 04:39:55;;;;;;;15.15;6.10;;;-0.10;99.90;;;;;;5116751;28;20054;-76
2022/02/12 04:42:21;;;;;;;13.50;6.18;;;-0.10;99.90;;;;;;5115558;28;20387;-75
2022/02/12 04:44:49;;;;;;;17.35;5.68;;;0.00;99.90;;;;;;5115328;28;20506;-75
2022/02/12 04:47:15;;;;;;;13.48;5.90;;;0.00;99.90;;;;;;5114553;28;20066;-75
2022/02/12 04:49:42;;;;;;;17.20;6.25;;;-0.10;99.90;;;;;;5115351;28;20059;-75
2022/02/12 04:52:11;;;;;;;18.27;6.93;;;0.00;99.90;;;;;;5114254;28;20112;-75
2022/02/12 04:54:37;;;;;;;20.83;6.00;;;-0.10;99.90;;;;;;5115344;28;20036;-75
2022/02/12 04:57:03;;;;;;;17.33;5.28;;;-0.10;99.90;;;;;;5115626;28;20031;-76
2022/02/12 04:59:28;;;;;;;15.50;6.50;;;0.00;99.90;;;;;;5114091;28;20039;-76
2022/02/12 05:01:54;;;;;;;17.02;6.18;;;-0.10;99.90;;;;;;5114629;28;20053;-75
2022/02/12 05:04:20;;;;;;;20.02;6.78;;;-0.10;99.90;;;;;;5115165;28;20142;-75
2022/02/12 05:06:46;;;;;;;20.58;6.43;;;-0.10;99.90;;;;;;5114578;28;20107;-76
2022/02/12 05:09:14;;;;;;;22.30;6.07;;;-0.10;99.90;;;;;;5115274;28;20540;-75
2022/02/12 05:11:40;;;;;;;17.63;6.32;;;-0.10;99.90;;;;;;5115990;28;20386;-76
2022/02/12 05:14:06;;;;;;;19.48;7.03;;;-0.20;99.90;;;;;;5114564;28;20051;-74
2022/02/12 05:16:32;;;;;;;15.30;5.95;;;-0.20;99.90;;;;;;5115350;28;20478;-75
2022/02/12 05:18:57;;;;;;;20.08;6.82;;;-0.20;99.90;;;;;;5114770;28;20024;-75
2022/02/12 05:21:23;;;;;;;16.90;5.63;;;-0.20;99.90;;;;;;5114098;28;20020;-75
2022/02/12 05:23:48;;;;;;;21.05;8.30;;;-0.30;99.90;;;;;;5116192;28;20511;-74
2022/02/12 05:26:15;;;;;;;20.65;7.05;;;-0.20;99.90;;;;;;5114911;28;20059;-75
2022/02/12 05:28:42;;;;;;;17.40;6.40;;;-0.30;99.90;;;;;;5114402;28;20031;-75
2022/02/12 05:31:07;;;;;;;18.10;6.13;;;-0.30;99.90;;;;;;5114649;28;20475;-75
2022/02/12 05:33:37;;;;;;;32.55;6.57;;;-0.40;99.90;;;;;;5113566;28;20162;-75
2022/02/12 05:36:06;;;;;;;21.95;7.32;;;-0.30;99.90;;;;;;5113281;28;20066;-76
2022/02/12 05:38:32;;;;;;;11.95;5.40;;;-0.30;99.90;;;;;;5114776;28;20031;-75
2022/02/12 05:40:58;;;;;;;12.68;6.63;;;-0.40;99.90;;;;;;5114029;28;20024;-75
2022/02/12 05:43:23;;;;;;;15.07;5.28;;;-0.40;99.90;;;;;;5113248;28;20062;-76
2022/02/12 05:45:49;;;;;;;23.27;6.07;;;-0.30;99.90;;;;;;5113863;28;20027;-76
2022/02/12 05:48:16;;;;;;;13.80;5.18;;;-0.40;99.90;;;;;;5113685;28;20031;-75
2022/02/12 05:50:43;;;;;;;16.58;5.70;;;-0.40;99.90;;;;;;5114177;28;20081;-75
2022/02/12 05:53:08;;;;;;;15.10;6.03;;;-0.40;99.90;;;;;;5114053;28;20031;-76
2022/02/12 05:55:34;;;;;;;22.33;6.47;;;-0.40;99.90;;;;;;5114080;28;20038;-76
2022/02/12 05:57:59;;;;;;;20.63;7.80;;;-0.40;99.90;;;;;;5114927;28;20020;-75
2022/02/12 06:00:26;;;;;;;17.80;6.35;;;-0.30;99.90;;;;;;5114674;28;20023;-76
2022/02/12 06:02:52;;;;;;;27.60;7.05;;;-0.40;99.90;;;;;;5114648;28;20501;-76
2022/02/12 06:05:17;;;;;;;20.25;6.18;;;-0.40;99.90;;;;;;5114188;28;20082;-74
2022/02/12 06:07:43;;;;;;;19.98;6.00;;;-0.40;99.90;;;;;;5113095;28;20027;-75
2022/02/12 06:10:10;;;;;;;12.45;5.20;;;-0.40;99.90;;;;;;5113841;28;20027;-76
2022/02/12 06:12:36;;;;;;;22.00;6.85;;;-0.40;99.90;;;;;;5113783;28;20125;-75
2022/02/12 06:15:02;;;;;;;18.05;6.20;;;-0.50;99.90;;;;;;5113791;28;20035;-75
2022/02/12 06:17:28;;;;;;;17.70;5.57;;;-0.50;99.90;;;;;;5112933;28;20016;-75
2022/02/12 06:19:54;;;;;;;12.75;6.25;;;-0.50;99.90;;;;;;5114173;28;20034;-76
2022/02/12 06:22:20;;;;;;;17.10;6.07;;;-0.50;99.90;;;;;;5113383;28;20528;-75
2022/02/12 06:24:46;;;;;;;15.05;7.05;;;-0.50;99.90;;;;;;5113081;28;20060;-75
2022/02/12 06:27:11;;;;;;;17.63;6.18;;;-0.50;99.90;;;;;;5113579;28;20069;-75
2022/02/12 06:29:37;;;;;;;21.30;6.38;;;0.10;99.90;;;;;;5114288;28;20467;-75
2022/02/12 06:32:03;;;;;;;22.45;6.57;;;-0.60;99.90;;;;;;5112973;28;20047;-75
2022/02/12 06:34:28;;;;;;;23.42;7.47;;;-0.50;99.90;;;;;;5113708;28;20053;-76
2022/02/12 06:36:57;;;;;;;16.13;5.85;;;-0.50;99.90;;;;;;5114287;28;20378;-77
2022/02/12 06:39:22;;;;;;;22.42;7.00;;;-0.50;99.90;;;;;;5113185;28;20030;-77
2022/02/12 06:41:48;;;;;;;19.73;5.97;;;-0.40;99.90;;;;;;5114737;28;20015;-76
2022/02/12 06:44:16;;;;;;;20.52;6.72;;;-0.50;99.90;;;;;;5113995;28;20031;-76
2022/02/12 06:46:43;;;;;;;22.52;6.25;;;-0.50;99.90;;;;;;5112528;28;20062;-76
2022/02/12 06:49:08;;;;;;;9.45;5.68;;;-0.40;99.90;;;;;;5112659;28;20136;-76
2022/02/12 06:51:36;;;;;;;17.77;5.90;;;-0.40;99.90;;;;;;5126577;28;20063;-77
2022/02/12 06:54:02;;;;;;;27.70;6.68;;;-0.30;99.90;;;;;;5133930;27;20030;-74
2022/02/12 06:56:27;;;;;;;17.30;6.15;;;-0.30;99.90;;;;;;5134262;28;20023;-75
2022/02/12 06:58:53;;;;;;;17.80;6.10;;;-0.40;99.90;;;;;;5124954;28;21259;-75
2022/02/12 07:01:19;;;;;;;20.40;6.10;;;-0.40;99.90;;;;;;5113972;28;20491;-76
2022/02/12 07:03:45;;;;;;;25.35;8.05;;;-0.40;99.90;;;;;;5115637;28;20550;-76
2022/02/12 07:06:10;;;;;;;14.82;6.60;;;-0.30;99.90;;;;;;5112888;28;20149;-77
2022/02/12 07:08:36;;;;;;;20.75;7.25;;;-0.40;99.90;;;;;;5114449;28;20042;-77
2022/02/12 07:11:02;;;;;;;13.65;6.68;;;-0.30;99.90;;;;;;5113588;28;20370;-76
2022/02/12 07:13:27;;;;;;;21.85;6.68;;;-0.40;99.90;;;;;;5111645;28;20546;-76
2022/02/12 07:15:54;;;;;;;21.40;7.28;;;-0.30;99.90;;;;;;5117790;28;20031;-76
2022/02/12 07:18:21;;;;;;;18.45;6.90;;;-0.40;99.90;;;;;;5112871;28;20099;-77
2022/02/12 07:20:47;;;;;;;21.27;6.60;;;-0.40;99.90;;;;;;5111601;28;20028;-75
2022/02/12 07:23:12;;;;;;;13.68;6.55;;;-0.40;99.90;;;;;;5113725;28;20045;-76
2022/02/12 07:25:38;;;;;;;16.65;6.22;;;-0.40;99.90;;;;;;5117798;27;20015;-76
2022/02/12 07:28:04;;;;;;;18.85;6.65;;;-0.40;99.90;;;;;;5116215;28;20024;-76
2022/02/12 07:30:29;;;;;;;23.83;7.65;;;-0.40;99.90;;;;;;5116591;28;20489;-77
2022/02/12 07:32:55;;;;;;;18.15;7.30;;;-0.40;99.90;;;;;;5118829;27;20023;-77
2022/02/12 07:35:20;;;;;;;14.05;6.85;;;-0.30;99.90;;;;;;5114923;28;20044;-76
2022/02/12 07:37:52;;;;;;;27.30;8.13;;;-0.30;99.90;;;;;;5120067;27;20059;-76
2022/02/12 07:40:19;;;;;;;16.45;7.00;;;-0.20;99.90;;;;;;5125611;27;20473;-77
2022/02/12 07:42:46;;;;;;;20.98;7.93;;;-0.20;99.90;;;;;;5118398;27;20007;-76
2022/02/12 07:45:13;;;;;;;13.60;7.22;;;-0.10;99.90;;;;;;5116274;28;20069;-76
2022/02/12 07:47:39;;;;;;;21.35;8.07;;;-0.10;99.90;;;;;;5121932;27;20413;-74
2022/02/12 07:50:07;;;;;;;23.85;7.88;;;-0.20;99.90;;;;;;5120755;27;20054;-76
2022/02/12 07:52:33;;;;;;;32.08;7.85;;;-0.20;99.90;;;;;;5115944;28;20018;-75
2022/02/12 07:54:59;;;;;;;20.23;7.75;;;-0.10;99.90;;;;;;5120123;27;20424;-75
2022/02/12 07:57:25;;;;;;;19.20;7.45;;;-0.10;99.90;;;;;;5116153;28;20027;-76
2022/02/12 07:59:52;;;;;;;23.23;8.00;;;-0.20;99.90;;;;;;5116008;28;20371;-75
2022/02/12 08:02:18;;;;;;;18.40;7.22;;;-0.10;99.90;;;;;;5116444;28;20024;-74
2022/02/12 08:04:44;;;;;;;19.67;7.40;;;-0.10;99.90;;;;;;5116034;28;20410;-77
2022/02/12 08:07:28;;;;;;;19.98;7.35;;;-0.10;99.90;;;;;;5114911;28;20016;-75
2022/02/12 08:11:22;;;;;;;22.02;7.53;;;-0.10;99.90;;;;;;5114892;27;20031;-75
2022/02/12 08:12:48;;;;;;;20.52;9.25;;;0.00;99.90;;;;;;5115244;28;20506;-75
2022/02/12 08:15:13;;;;;;;16.40;7.47;;;0.10;99.90;;;;;;5118725;27;20043;-75
2022/02/12 08:17:39;;;;;;;15.00;7.05;;;0.20;99.90;;;;;;5115385;28;20098;-75
2022/02/12 08:20:05;;;;;;;17.05;7.43;;;0.20;99.90;;;;;;5115807;28;20015;-75
2022/02/12 08:22:30;;;;;;;21.92;7.05;;;0.40;99.90;;;;;;5115983;28;20016;-77
2022/02/12 08:24:56;;;;;;;15.68;6.60;;;0.40;99.90;;;;;;5114882;28;20032;-76
2022/02/12 08:27:22;;;;;;;15.00;6.00;;;0.50;99.90;;;;;;5115212;28;20016;-77
2022/02/12 08:29:48;;;;;;;23.75;6.88;;;0.50;99.90;;;;;;5118344;27;20023;-76
2022/02/12 08:32:14;;;;;;;24.08;7.28;;;0.70;99.90;;;;;;5114563;28;20407;-76
2022/02/12 08:34:42;;;;;;;25.95;7.15;;;0.70;99.90;;;;;;5115388;28;20020;-75
2022/02/12 08:37:08;;;;;;;17.65;7.18;;;0.80;99.90;;;;;;5116018;28;20024;-76
2022/02/12 08:39:33;;;;;;;18.45;6.82;;;1.00;99.90;;;;;;5115960;28;20038;-77
2022/02/12 08:41:59;;;;;;;15.05;6.43;;;1.10;99.90;;;;;;5116784;28;20470;-76
2022/02/12 08:44:24;;;;;;;15.88;6.25;;;1.20;99.90;;;;;;5116092;28;20038;-76
2022/02/12 08:46:50;;;;;;;30.52;8.98;;;1.20;99.90;;;;;;5116105;28;20377;-76
2022/02/12 08:49:16;;;;;;;22.60;6.70;;;1.30;99.90;;;;;;5115238;28;20468;-76
2022/02/12 08:51:41;;;;;;;12.93;6.45;;;1.40;99.90;;;;;;5115435;28;20092;-80
2022/02/12 08:54:08;;;;;;;18.50;6.63;;;1.50;99.90;;;;;;5116423;28;20024;-79
2022/02/12 08:56:39;;;;;;;18.58;6.85;;;1.60;99.90;;;;;;5116545;28;20367;-79
2022/02/12 08:59:05;;;;;;;13.57;6.00;;;1.70;99.90;;;;;;5115407;28;20099;-81
2022/02/12 09:01:33;;;;;;;12.05;5.47;;;1.80;99.90;;;;;;5115440;28;20024;-79
2022/02/12 09:03:59;;;;;;;11.38;5.72;;;1.90;99.90;;;;;;5115813;28;20019;-80
2022/02/12 09:06:25;;;;;;;16.67;5.85;;;2.00;99.90;;;;;;5115418;28;20081;-79
2022/02/12 09:08:51;;;;;;;15.27;5.18;;;2.00;99.90;;;;;;5116963;28;20012;-78
2022/02/12 09:11:26;;;;;;;14.27;5.80;;;2.10;99.90;;;;;;5116510;28;20047;-78
2022/02/12 09:13:53;;;;;;;13.80;5.63;;;2.20;99.90;;;;;;5116154;28;20024;-78
2022/02/12 09:16:21;;;;;;;15.35;5.07;;;2.30;99.90;;;;;;5116670;28;20067;-78
2022/02/12 09:18:48;;;;;;;9.13;5.00;;;2.40;99.90;;;;;;5115271;28;20019;-78
2022/02/12 09:21:14;;;;;;;19.85;5.40;;;2.50;99.90;;;;;;5114814;28;20036;-79
2022/02/12 09:23:40;;;;;;;17.65;5.75;;;2.50;99.90;;;;;;5115803;28;20562;-74
2022/02/12 09:26:06;;;;;;;12.57;5.72;;;2.50;99.90;;;;;;5115700;28;20062;-78
2022/02/12 09:28:32;;;;;;;19.02;5.55;;;2.60;99.90;;;;;;5116430;28;20110;-79
2022/02/12 09:30:57;;;;;;;11.90;4.85;;;2.70;99.90;;;;;;5115738;28;20161;-76
2022/02/12 09:33:23;;;;;;;12.80;5.35;;;2.80;99.90;;;;;;5115421;28;20019;-77
2022/02/12 09:35:53;;;;;;;17.45;6.20;;;2.90;99.90;;;;;;5116278;28;20042;-78
2022/02/12 09:38:19;;;;;;;15.98;6.38;;;3.00;99.90;;;;;;5115608;28;20043;-77
2022/02/12 09:40:45;;;;;;;15.05;5.60;;;3.00;99.90;;;;;;5115425;28;20032;-77
2022/02/12 09:43:11;;;;;;;14.60;5.13;;;3.10;99.90;;;;;;5116168;28;20475;-80
2022/02/12 09:45:48;;;;;;;22.70;6.03;;;3.20;99.90;;;;;;5115727;28;20119;-80
2022/02/12 09:48:15;;;;;;;13.50;5.07;;;3.20;99.90;;;;;;5114843;28;20032;-80
2022/02/12 09:50:41;;;;;;;21.33;5.90;;;3.30;99.90;;;;;;5116303;28;20055;-80
2022/02/12 09:53:07;;;;;;;13.98;5.45;;;3.30;99.90;;;;;;5120584;27;20023;-79
2022/02/12 09:55:35;;;;;;;10.63;5.40;;;3.40;99.90;;;;;;5119455;27;20035;-79
2022/02/12 09:58:04;;;;;;;11.00;4.82;;;3.50;99.90;;;;;;5120914;27;20454;-78
2022/02/12 10:00:30;;;;;;;11.30;4.47;;;3.60;99.90;;;;;;5115029;28;20371;-79
2022/02/12 10:02:56;;;;;;;22.98;6.80;;;3.70;99.90;;;;;;5114193;28;20030;-80
2022/02/12 10:05:29;;;;;;;15.50;5.90;;;3.80;99.90;;;;;;5114331;28;20058;-78
2022/02/12 10:08:07;;;;;;;12.15;4.45;;;3.80;99.90;;;;;;5115375;28;20036;-76
2022/02/12 10:10:36;;;;;;;15.95;4.97;;;3.90;99.90;;;;;;5114561;28;20032;-80
2022/02/12 10:13:13;;;;;;;14.30;4.40;;;4.00;99.90;;;;;;5115713;28;20023;-80
2022/02/12 10:15:41;;;;;;;17.73;4.43;;;4.10;99.90;;;;;;5114773;28;20514;-80
2022/02/12 10:18:08;;;;;;;11.75;4.93;;;4.10;99.90;;;;;;5114040;28;20032;-78
2022/02/12 10:20:36;;;;;;;12.15;3.92;;;4.20;99.90;;;;;;5114299;28;20069;-79
2022/02/12 10:23:11;;;;;;;17.23;4.63;;;4.30;99.90;;;;;;5113766;28;20100;-77
2022/02/12 10:25:40;;;;;;;10.15;3.85;;;4.40;99.90;;;;;;5114969;28;20026;-79
2022/02/12 10:28:07;;;;;;;11.30;4.63;;;4.40;99.90;;;;;;5115030;28;20036;-78
2022/02/12 10:30:33;;;;;;;14.90;4.40;;;4.60;99.90;;;;;;5113982;28;20092;-79
2022/02/12 10:33:01;;;;;;;12.30;4.35;;;4.60;99.90;;;;;;5114117;28;20391;-79
2022/02/12 10:35:28;;;;;;;12.35;4.15;;;4.70;99.90;;;;;;5114265;28;20495;-79
2022/02/12 10:38:02;;;;;;;15.65;5.43;;;4.80;99.90;;;;;;5118644;27;20115;-79
2022/02/12 10:40:28;;;;;;;11.95;4.00;;;4.80;99.90;;;;;;5121552;28;20027;-78
2022/02/12 10:42:55;;;;;;;12.70;3.85;;;4.90;99.90;;;;;;5121078;27;20059;-81
2022/02/12 10:45:22;;;;;;;11.40;4.28;;;4.90;99.90;;;;;;5121947;27;20102;-80
2022/02/12 10:47:49;;;;;;;17.88;4.20;;;5.00;99.90;;;;;;5123601;28;20030;-76
2022/02/12 10:50:19;;;;;;;12.30;4.07;;;5.10;99.90;;;;;;5127162;27;20024;-82
2022/02/12 10:52:47;;;;;;;15.73;5.68;;;5.20;99.90;;;;;;5118619;27;20467;-83
2022/02/12 10:55:31;;;;;;;8.73;3.88;;;5.30;99.90;;;;;;5119663;28;20036;-84
2022/02/12 10:57:58;;;;;;;11.80;5.13;;;5.40;99.90;;;;;;5126769;27;20043;-83
2022/02/12 11:00:25;;;;;;;13.15;4.05;;;5.40;99.90;;;;;;5128161;27;20027;-83
2022/02/12 11:02:52;;;;;;;9.07;4.00;;;5.50;99.90;;;;;;5122484;27;20498;-85
2022/02/12 11:05:21;;;;;;;10.20;4.05;;;5.60;99.90;;;;;;5126805;27;20168;-83
2022/02/12 11:07:48;;;;;;;10.57;2.90;;;5.70;99.90;;;;;;5127607;27;20038;-83
2022/02/12 11:10:14;;;;;;;13.38;4.40;;;5.80;99.90;;;;;;5126204;27;20054;-84
2022/02/12 11:12:40;;;;;;;8.15;3.33;;;5.90;99.90;;;;;;5124018;27;20023;-84
2022/02/12 11:15:07;;;;;;;14.65;3.95;;;6.00;99.90;;;;;;5124208;27;20149;-82
2022/02/12 11:17:34;;;;;;;10.55;3.55;;;6.00;99.90;;;;;;5119211;27;20394;-84
2022/02/12 11:20:01;;;;;;;12.02;3.60;;;6.10;99.90;;;;;;5127809;27;20060;-85
2022/02/12 11:22:28;;;;;;;10.25;3.50;;;6.10;99.90;;;;;;5127660;27;20137;-84
2022/02/12 11:24:54;;;;;;;7.90;3.70;;;6.20;99.90;;;;;;5127683;27;20052;-85
2022/02/12 11:27:29;;;;;;;12.23;2.90;;;6.30;99.90;;;;;;5127606;27;20046;-83
2022/02/12 11:30:19;;;;;;;10.48;3.22;;;6.30;99.90;;;;;;5125548;27;20024;-84
2022/02/12 11:32:45;;;;;;;9.17;2.70;;;6.30;99.90;;;;;;5130336;27;20374;-82
2022/02/12 11:35:10;;;;;;;12.15;2.65;;;6.40;99.90;;;;;;5138877;27;20123;-84
2022/02/12 11:37:42;;;;;;;14.52;2.75;;;6.50;99.90;;;;;;5139631;27;20047;-84
2022/02/12 11:40:13;;;;;;;7.78;2.88;;;6.60;99.90;;;;;;5139146;27;20031;-83
2022/02/12 11:42:44;;;;;;;13.07;4.03;;;6.60;99.90;;;;;;5138371;27;20035;-83
2022/02/12 11:45:21;;;;;;;11.38;2.83;;;6.70;99.90;;;;;;5138413;27;20106;-84
2022/02/12 11:48:18;;;;;;;10.75;2.95;;;6.70;99.90;;;;;;5138036;27;20439;-82
2022/02/12 11:50:48;;;;;;;12.23;2.90;;;6.70;99.90;;;;;;5139578;27;20038;-86
2022/02/12 11:53:33;;;;;;;13.23;3.65;;;6.80;99.90;;;;;;5138168;27;20039;-84
2022/02/12 11:56:10;;;;;;;11.93;3.75;;;6.80;99.90;;;;;;5137099;27;20084;-84
2022/02/12 11:58:41;;;;;;;13.35;3.22;;;6.80;99.90;;;;;;5136029;27;20015;-83
2022/02/12 12:01:28;;;;;;;7.80;3.33;;;6.80;99.90;;;;;;5140999;27;20031;-87
2022/02/12 12:04:11;;;;;;;15.57;3.83;;;6.70;99.90;;;;;;5129228;27;20034;-83
2022/02/12 12:06:39;;;;;;;7.93;3.00;;;6.80;99.90;;;;;;5158383;27;20128;-84
2022/02/12 12:09:06;;;;;;;10.07;2.35;;;6.80;99.90;;;;;;5143811;27;20026;-83
2022/02/12 12:11:33;;;;;;;5.28;2.92;;;6.90;99.90;;;;;;5140949;27;20046;-83
2022/02/12 12:14:24;;;;;;;14.52;3.95;;;6.90;99.90;;;;;;5142407;27;20098;-84
2022/02/12 12:16:54;;;;;;;3.60;2.65;;;7.00;99.90;;;;;;5137168;27;20122;-83
2022/02/12 12:19:34;;;;;;;8.65;2.85;;;7.10;99.90;;;;;;5137574;27;20035;-84
2022/02/12 12:22:02;;;;;;;15.93;3.47;;;7.20;99.90;;;;;;5135065;27;20550;-84
2022/02/12 12:24:28;;;;;;;9.73;3.13;;;7.20;99.90;;;;;;5115371;27;20023;-83
2022/02/12 12:26:54;;;;;;;5.47;2.38;;;7.30;99.90;;;;;;5132333;27;20025;-84
2022/02/12 12:32:14;;;;;;;3.33;2.35;;;7.40;99.90;;;;;;5130490;27;20035;-83
2022/02/12 12:35:03;;;;;;;6.85;2.75;;;7.50;99.90;;;;;;5124758;27;20024;-83
2022/02/12 12:37:50;;;;;;;11.13;2.47;;;7.50;99.90;;;;;;5125476;27;20023;-83
2022/02/12 12:40:17;;;;;;;12.30;4.18;;;7.50;99.90;;;;;;5134324;27;20034;-85
2022/02/12 12:42:42;;;;;;;11.30;3.22;;;7.60;99.90;;;;;;5129969;27;20034;-83
2022/02/12 12:45:11;;;;;;;7.60;2.53;;;7.60;99.90;;;;;;5128143;27;20019;-84
2022/02/12 12:47:46;;;;;;;9.25;2.75;;;7.70;99.90;;;;;;5130265;27;20094;-84
2022/02/12 12:50:11;;;;;;;5.40;2.53;;;7.60;99.90;;;;;;5129253;27;20027;-83
2022/02/12 12:52:37;;;;;;;7.38;3.00;;;7.70;99.90;;;;;;5137432;27;20492;-83
2022/02/12 12:55:11;;;;;;;9.38;3.22;;;7.70;99.90;;;;;;5137380;27;20067;-83